sensor_id;sensor_type;location;lat;lon;timestamp;pressure;altitude;pressure_sealevel;temperature;humidity
19884;BME280;10104;50.732;10.174;2024-01-27T00:00:40;99423.84;;;3.83;93.08
19884;BME280;10104;50.732;10.174;2024-01-27T00:03:21;99421.44;;;3.80;95.15
19884;BME280;10104;50.732;10.174;2024-01-27T00:06:01;99436.75;;;3.61;97.41
19884;BME280;10104;50.732;10.174;2024-01-27T00:08:42;99440.31;;;3.60;98.51
19884;BME280;10104;50.732;10.174;2024-01-27T00:11:22;99438.22;;;3.52;96.78
19884;BME280;10104;50.732;10.174;2024-01-27T00:14:06;99440.13;;;3.50;96.69
19884;BME280;10104;50.732;10.174;2024-01-27T00:16:47;99438.13;;;3.54;93.96
19884;BME280;10104;50.732;10.174;2024-01-27T00:19:27;99446.41;;;3.48;95.72
19884;BME280;10104;50.732;10.174;2024-01-27T00:22:08;99446.09;;;3.52;92.42
19884;BME280;10104;50.732;10.174;2024-01-27T00:24:48;99458.47;;;3.50;92.77
19884;BME280;10104;50.732;10.174;2024-01-27T00:27:28;99449.34;;;3.43;92.34
19884;BME280;10104;50.732;10.174;2024-01-27T00:30:08;99449.13;;;3.46;91.68
19884;BME280;10104;50.732;10.174;2024-01-27T00:32:49;99449.13;;;3.46;90.69
19884;BME280;10104;50.732;10.174;2024-01-27T00:35:29;99451.53;;;3.49;89.99
19884;BME280;10104;50.732;10.174;2024-01-27T00:38:09;99448.50;;;3.43;90.42
19884;BME280;10104;50.732;10.174;2024-01-27T00:40:50;99449.88;;;3.48;89.60
19884;BME280;10104;50.732;10.174;2024-01-27T00:43:30;99448.59;;;3.54;87.88
19884;BME280;10104;50.732;10.174;2024-01-27T00:46:10;99449.75;;;3.50;89.59
19884;BME280;10104;50.732;10.174;2024-01-27T00:48:51;99454.59;;;3.43;91.22
19884;BME280;10104;50.732;10.174;2024-01-27T00:51:32;99455.09;;;3.48;87.26
19884;BME280;10104;50.732;10.174;2024-01-27T00:54:12;99465.81;;;3.45;88.33
19884;BME280;10104;50.732;10.174;2024-01-27T00:56:53;99472.25;;;3.40;90.70
19884;BME280;10104;50.732;10.174;2024-01-27T00:59:33;99478.75;;;3.34;90.22
19884;BME280;10104;50.732;10.174;2024-01-27T01:02:13;99485.16;;;3.30;90.87
19884;BME280;10104;50.732;10.174;2024-01-27T01:04:53;99475.84;;;3.26;91.45
19884;BME280;10104;50.732;10.174;2024-01-27T01:07:33;99478.53;;;3.24;91.27
19884;BME280;10104;50.732;10.174;2024-01-27T01:10:13;99485.97;;;3.18;94.02
19884;BME280;10104;50.732;10.174;2024-01-27T01:12:53;99489.84;;;3.12;94.51
19884;BME280;10104;50.732;10.174;2024-01-27T01:15:34;99483.84;;;3.10;95.29
19884;BME280;10104;50.732;10.174;2024-01-27T01:18:14;99488.03;;;3.00;96.17
19884;BME280;10104;50.732;10.174;2024-01-27T01:20:54;99477.22;;;2.92;98.10
19884;BME280;10104;50.732;10.174;2024-01-27T01:23:35;99477.53;;;2.88;99.49
19884;BME280;10104;50.732;10.174;2024-01-27T01:26:16;99484.00;;;2.82;100.00
19884;BME280;10104;50.732;10.174;2024-01-27T01:28:56;99493.94;;;2.77;100.00
19884;BME280;10104;50.732;10.174;2024-01-27T01:31:36;99499.75;;;2.68;100.00
19884;BME280;10104;50.732;10.174;2024-01-27T01:34:17;99515.06;;;2.60;100.00
19884;BME280;10104;50.732;10.174;2024-01-27T01:36:57;99513.59;;;2.56;100.00
19884;BME280;10104;50.732;10.174;2024-01-27T01:39:37;99510.22;;;2.54;100.00
19884;BME280;10104;50.732;10.174;2024-01-27T01:42:17;99508.59;;;2.53;100.00
19884;BME280;10104;50.732;10.174;2024-01-27T01:44:58;99515.13;;;2.46;100.00
19884;BME280;10104;50.732;10.174;2024-01-27T01:47:38;99514.00;;;2.50;100.00
19884;BME280;10104;50.732;10.174;2024-01-27T01:50:19;99511.84;;;2.42;100.00
19884;BME280;10104;50.732;10.174;2024-01-27T01:53:00;99527.75;;;2.39;100.00
19884;BME280;10104;50.732;10.174;2024-01-27T01:55:41;99526.91;;;2.38;100.00
19884;BME280;10104;50.732;10.174;2024-01-27T01:58:21;99536.69;;;2.49;100.00
19884;BME280;10104;50.732;10.174;2024-01-27T02:01:01;99530.69;;;2.47;100.00
19884;BME280;10104;50.732;10.174;2024-01-27T02:03:51;99527.53;;;2.42;100.00
19884;BME280;10104;50.732;10.174;2024-01-27T02:06:32;99538.00;;;2.42;100.00
19884;BME280;10104;50.732;10.174;2024-01-27T02:09:12;99533.53;;;2.44;100.00
19884;BME280;10104;50.732;10.174;2024-01-27T02:11:52;99535.50;;;2.40;100.00
19884;BME280;10104;50.732;10.174;2024-01-27T02:14:33;99532.16;;;2.24;100.00
19884;BME280;10104;50.732;10.174;2024-01-27T02:17:13;99531.84;;;2.29;100.00
19884;BME280;10104;50.732;10.174;2024-01-27T02:19:53;99522.38;;;2.28;100.00
19884;BME280;10104;50.732;10.174;2024-01-27T02:22:34;99526.16;;;2.36;100.00
19884;BME280;10104;50.732;10.174;2024-01-27T02:25:14;99527.94;;;2.36;100.00
19884;BME280;10104;50.732;10.174;2024-01-27T02:27:55;99525.97;;;2.39;100.00
19884;BME280;10104;50.732;10.174;2024-01-27T02:30:35;99539.03;;;2.39;100.00
19884;BME280;10104;50.732;10.174;2024-01-27T02:33:15;99534.84;;;2.37;100.00
19884;BME280;10104;50.732;10.174;2024-01-27T02:35:56;99542.38;;;2.41;100.00
19884;BME280;10104;50.732;10.174;2024-01-27T02:38:36;99545.84;;;2.42;100.00
19884;BME280;10104;50.732;10.174;2024-01-27T02:41:16;99549.38;;;2.41;100.00
19884;BME280;10104;50.732;10.174;2024-01-27T02:43:56;99545.19;;;2.38;100.00
19884;BME280;10104;50.732;10.174;2024-01-27T02:46:37;99565.28;;;2.38;100.00
19884;BME280;10104;50.732;10.174;2024-01-27T02:49:17;99548.66;;;2.39;100.00
19884;BME280;10104;50.732;10.174;2024-01-27T02:51:57;99562.13;;;2.33;100.00
19884;BME280;10104;50.732;10.174;2024-01-27T02:54:37;99547.81;;;2.24;100.00
19884;BME280;10104;50.732;10.174;2024-01-27T02:57:18;99551.19;;;2.26;100.00
19884;BME280;10104;50.732;10.174;2024-01-27T03:00:00;99545.97;;;2.26;100.00
19884;BME280;10104;50.732;10.174;2024-01-27T03:02:40;99546.63;;;2.16;100.00
19884;BME280;10104;50.732;10.174;2024-01-27T03:05:20;99540.44;;;2.17;100.00
19884;BME280;10104;50.732;10.174;2024-01-27T03:08:00;99546.91;;;2.25;100.00
19884;BME280;10104;50.732;10.174;2024-01-27T03:10:40;99542.34;;;2.15;100.00
19884;BME280;10104;50.732;10.174;2024-01-27T03:13:20;99549.25;;;2.16;100.00
19884;BME280;10104;50.732;10.174;2024-01-27T03:16:01;99548.78;;;2.09;100.00
19884;BME280;10104;50.732;10.174;2024-01-27T03:18:41;99548.97;;;2.06;100.00
19884;BME280;10104;50.732;10.174;2024-01-27T03:21:22;99554.09;;;2.08;100.00
19884;BME280;10104;50.732;10.174;2024-01-27T03:24:03;99552.41;;;2.07;100.00
19884;BME280;10104;50.732;10.174;2024-01-27T03:26:43;99559.88;;;2.13;100.00
19884;BME280;10104;50.732;10.174;2024-01-27T03:29:23;99565.94;;;2.13;100.00
19884;BME280;10104;50.732;10.174;2024-01-27T03:32:03;99563.69;;;2.07;100.00
19884;BME280;10104;50.732;10.174;2024-01-27T03:34:44;99567.25;;;2.06;100.00
19884;BME280;10104;50.732;10.174;2024-01-27T03:37:27;99572.00;;;2.14;100.00
19884;BME280;10104;50.732;10.174;2024-01-27T03:40:08;99581.72;;;2.12;100.00
19884;BME280;10104;50.732;10.174;2024-01-27T03:42:49;99584.59;;;2.07;100.00
19884;BME280;10104;50.732;10.174;2024-01-27T03:45:29;99582.44;;;1.99;100.00
19884;BME280;10104;50.732;10.174;2024-01-27T03:48:09;99583.50;;;1.97;100.00
19884;BME280;10104;50.732;10.174;2024-01-27T03:50:50;99584.97;;;2.01;100.00
19884;BME280;10104;50.732;10.174;2024-01-27T03:53:30;99584.50;;;1.94;100.00
19884;BME280;10104;50.732;10.174;2024-01-27T03:56:13;99581.97;;;1.93;100.00
19884;BME280;10104;50.732;10.174;2024-01-27T03:58:53;99581.50;;;1.86;100.00
19884;BME280;10104;50.732;10.174;2024-01-27T04:01:35;99593.91;;;1.83;100.00
19884;BME280;10104;50.732;10.174;2024-01-27T04:04:15;99585.25;;;1.82;100.00
19884;BME280;10104;50.732;10.174;2024-01-27T04:06:55;99587.28;;;1.77;100.00
19884;BME280;10104;50.732;10.174;2024-01-27T04:09:35;99581.59;;;1.71;100.00
19884;BME280;10104;50.732;10.174;2024-01-27T04:12:16;99583.53;;;1.67;100.00
19884;BME280;10104;50.732;10.174;2024-01-27T04:14:57;99598.25;;;1.68;100.00
19884;BME280;10104;50.732;10.174;2024-01-27T04:17:38;99601.91;;;1.66;100.00
19884;BME280;10104;50.732;10.174;2024-01-27T04:20:18;99606.44;;;1.62;100.00
19884;BME280;10104;50.732;10.174;2024-01-27T04:22:58;99606.84;;;1.70;100.00
19884;BME280;10104;50.732;10.174;2024-01-27T04:25:38;99607.00;;;1.67;100.00
19884;BME280;10104;50.732;10.174;2024-01-27T04:28:18;99617.94;;;1.74;100.00
19884;BME280;10104;50.732;10.174;2024-01-27T04:30:58;99616.16;;;1.60;100.00
19884;BME280;10104;50.732;10.174;2024-01-27T04:33:39;99616.38;;;1.71;100.00
19884;BME280;10104;50.732;10.174;2024-01-27T04:36:28;99615.22;;;1.61;100.00
19884;BME280;10104;50.732;10.174;2024-01-27T04:39:10;99618.28;;;1.53;100.00
19884;BME280;10104;50.732;10.174;2024-01-27T04:41:50;99628.63;;;1.55;100.00
19884;BME280;10104;50.732;10.174;2024-01-27T04:44:31;99625.63;;;1.47;100.00
19884;BME280;10104;50.732;10.174;2024-01-27T04:47:11;99626.72;;;1.43;100.00
19884;BME280;10104;50.732;10.174;2024-01-27T04:49:51;99632.41;;;1.35;100.00
19884;BME280;10104;50.732;10.174;2024-01-27T04:52:31;99629.09;;;1.32;100.00
19884;BME280;10104;50.732;10.174;2024-01-27T04:55:11;99637.19;;;1.27;100.00
19884;BME280;10104;50.732;10.174;2024-01-27T04:57:51;99632.91;;;1.26;100.00
19884;BME280;10104;50.732;10.174;2024-01-27T05:00:31;99636.69;;;1.20;100.00
19884;BME280;10104;50.732;10.174;2024-01-27T05:03:12;99637.97;;;1.13;100.00
19884;BME280;10104;50.732;10.174;2024-01-27T05:05:55;99637.31;;;1.10;100.00
19884;BME280;10104;50.732;10.174;2024-01-27T05:08:35;99639.91;;;0.94;100.00
19884;BME280;10104;50.732;10.174;2024-01-27T05:11:16;99645.38;;;0.90;100.00
19884;BME280;10104;50.732;10.174;2024-01-27T05:13:58;99642.00;;;0.88;100.00
19884;BME280;10104;50.732;10.174;2024-01-27T05:16:38;99642.28;;;0.99;100.00
19884;BME280;10104;50.732;10.174;2024-01-27T05:19:18;99638.06;;;0.96;100.00
19884;BME280;10104;50.732;10.174;2024-01-27T05:21:59;99646.31;;;1.04;100.00
19884;BME280;10104;50.732;10.174;2024-01-27T05:24:39;99644.09;;;1.12;100.00
19884;BME280;10104;50.732;10.174;2024-01-27T05:27:20;99640.00;;;1.08;100.00
19884;BME280;10104;50.732;10.174;2024-01-27T05:30:00;99641.94;;;1.05;100.00
19884;BME280;10104;50.732;10.174;2024-01-27T05:32:41;99658.41;;;1.05;100.00
19884;BME280;10104;50.732;10.174;2024-01-27T05:35:21;99659.84;;;0.95;100.00
19884;BME280;10104;50.732;10.174;2024-01-27T05:38:01;99666.34;;;1.04;100.00
19884;BME280;10104;50.732;10.174;2024-01-27T05:40:42;99670.78;;;1.02;100.00
19884;BME280;10104;50.732;10.174;2024-01-27T05:43:22;99660.84;;;1.08;100.00
19884;BME280;10104;50.732;10.174;2024-01-27T05:46:03;99665.50;;;1.03;100.00
19884;BME280;10104;50.732;10.174;2024-01-27T05:48:43;99672.47;;;1.03;100.00
19884;BME280;10104;50.732;10.174;2024-01-27T05:51:23;99675.50;;;0.95;100.00
19884;BME280;10104;50.732;10.174;2024-01-27T05:54:03;99679.34;;;0.88;100.00
19884;BME280;10104;50.732;10.174;2024-01-27T05:56:47;99677.78;;;0.86;100.00
19884;BME280;10104;50.732;10.174;2024-01-27T05:59:27;99682.22;;;0.84;100.00
19884;BME280;10104;50.732;10.174;2024-01-27T06:02:07;99690.44;;;0.76;100.00
19884;BME280;10104;50.732;10.174;2024-01-27T06:04:48;99694.41;;;0.67;100.00
19884;BME280;10104;50.732;10.174;2024-01-27T06:07:28;99687.81;;;0.60;100.00
19884;BME280;10104;50.732;10.174;2024-01-27T06:10:09;99689.75;;;0.57;100.00
19884;BME280;10104;50.732;10.174;2024-01-27T06:12:49;99701.19;;;0.54;100.00
19884;BME280;10104;50.732;10.174;2024-01-27T06:15:31;99689.16;;;0.52;100.00
19884;BME280;10104;50.732;10.174;2024-01-27T06:18:11;99697.97;;;0.49;100.00
19884;BME280;10104;50.732;10.174;2024-01-27T06:20:52;99705.09;;;0.46;100.00
19884;BME280;10104;50.732;10.174;2024-01-27T06:23:32;99695.47;;;0.63;100.00
19884;BME280;10104;50.732;10.174;2024-01-27T06:26:14;99701.53;;;0.64;100.00
19884;BME280;10104;50.732;10.174;2024-01-27T06:28:54;99706.81;;;0.62;100.00
19884;BME280;10104;50.732;10.174;2024-01-27T06:31:34;99706.66;;;0.65;100.00
19884;BME280;10104;50.732;10.174;2024-01-27T06:34:15;99709.41;;;0.62;100.00
19884;BME280;10104;50.732;10.174;2024-01-27T06:36:55;99707.13;;;0.56;100.00
19884;BME280;10104;50.732;10.174;2024-01-27T06:39:35;99708.09;;;0.55;100.00
19884;BME280;10104;50.732;10.174;2024-01-27T06:42:16;99708.75;;;0.59;100.00
19884;BME280;10104;50.732;10.174;2024-01-27T06:44:56;99716.41;;;0.62;100.00
19884;BME280;10104;50.732;10.174;2024-01-27T06:47:37;99714.88;;;0.58;100.00
19884;BME280;10104;50.732;10.174;2024-01-27T06:50:17;99722.38;;;0.64;100.00
19884;BME280;10104;50.732;10.174;2024-01-27T06:52:57;99723.53;;;0.58;100.00
19884;BME280;10104;50.732;10.174;2024-01-27T06:55:37;99713.97;;;0.59;100.00
19884;BME280;10104;50.732;10.174;2024-01-27T06:58:22;99716.56;;;0.59;100.00
19884;BME280;10104;50.732;10.174;2024-01-27T07:01:03;99726.69;;;0.65;100.00
19884;BME280;10104;50.732;10.174;2024-01-27T07:03:43;99722.97;;;0.69;100.00
19884;BME280;10104;50.732;10.174;2024-01-27T07:06:25;99723.66;;;0.72;100.00
19884;BME280;10104;50.732;10.174;2024-01-27T07:09:05;99730.31;;;0.78;100.00
19884;BME280;10104;50.732;10.174;2024-01-27T07:11:47;99724.53;;;0.89;100.00
19884;BME280;10104;50.732;10.174;2024-01-27T07:14:27;99730.91;;;0.83;100.00
19884;BME280;10104;50.732;10.174;2024-01-27T07:17:07;99719.63;;;0.82;100.00
19884;BME280;10104;50.732;10.174;2024-01-27T07:19:47;99719.38;;;0.87;100.00
19884;BME280;10104;50.732;10.174;2024-01-27T07:22:28;99724.13;;;0.96;100.00
19884;BME280;10104;50.732;10.174;2024-01-27T07:25:08;99732.94;;;0.94;100.00
19884;BME280;10104;50.732;10.174;2024-01-27T07:27:50;99729.66;;;0.90;100.00
19884;BME280;10104;50.732;10.174;2024-01-27T07:30:30;99734.44;;;0.82;100.00
19884;BME280;10104;50.732;10.174;2024-01-27T07:33:11;99735.47;;;0.79;100.00
19884;BME280;10104;50.732;10.174;2024-01-27T07:35:52;99736.78;;;0.71;100.00
19884;BME280;10104;50.732;10.174;2024-01-27T07:38:32;99741.59;;;0.78;100.00
19884;BME280;10104;50.732;10.174;2024-01-27T07:41:12;99745.97;;;0.78;100.00
19884;BME280;10104;50.732;10.174;2024-01-27T07:43:54;99747.66;;;0.79;100.00
19884;BME280;10104;50.732;10.174;2024-01-27T07:46:34;99749.34;;;0.96;100.00
19884;BME280;10104;50.732;10.174;2024-01-27T07:49:14;99747.66;;;0.95;100.00
19884;BME280;10104;50.732;10.174;2024-01-27T07:51:55;99748.03;;;1.04;100.00
19884;BME280;10104;50.732;10.174;2024-01-27T07:54:35;99754.56;;;1.11;100.00
19884;BME280;10104;50.732;10.174;2024-01-27T07:57:19;99770.94;;;1.15;100.00
19884;BME280;10104;50.732;10.174;2024-01-27T07:59:59;99767.72;;;1.26;100.00
19884;BME280;10104;50.732;10.174;2024-01-27T08:02:39;99774.03;;;1.37;100.00
19884;BME280;10104;50.732;10.174;2024-01-27T08:05:20;99770.44;;;1.40;100.00
19884;BME280;10104;50.732;10.174;2024-01-27T08:08:01;99769.75;;;1.52;100.00
19884;BME280;10104;50.732;10.174;2024-01-27T08:10:41;99769.25;;;1.45;100.00
19884;BME280;10104;50.732;10.174;2024-01-27T08:13:21;99776.31;;;1.43;100.00
19884;BME280;10104;50.732;10.174;2024-01-27T08:16:02;99783.22;;;1.44;100.00
19884;BME280;10104;50.732;10.174;2024-01-27T08:18:42;99779.69;;;1.45;100.00
19884;BME280;10104;50.732;10.174;2024-01-27T08:21:24;99790.41;;;1.41;100.00
19884;BME280;10104;50.732;10.174;2024-01-27T08:24:04;99793.91;;;1.40;100.00
19884;BME280;10104;50.732;10.174;2024-01-27T08:26:45;99800.06;;;1.39;100.00
19884;BME280;10104;50.732;10.174;2024-01-27T08:29:26;99806.97;;;1.40;100.00
19884;BME280;10104;50.732;10.174;2024-01-27T08:32:07;99798.38;;;1.38;100.00
19884;BME280;10104;50.732;10.174;2024-01-27T08:34:47;99808.56;;;1.42;100.00
19884;BME280;10104;50.732;10.174;2024-01-27T08:37:28;99808.56;;;1.42;100.00
19884;BME280;10104;50.732;10.174;2024-01-27T08:40:08;99808.66;;;1.56;100.00
19884;BME280;10104;50.732;10.174;2024-01-27T08:42:48;99806.47;;;1.65;100.00
19884;BME280;10104;50.732;10.174;2024-01-27T08:45:28;99799.63;;;1.62;100.00
19884;BME280;10104;50.732;10.174;2024-01-27T08:48:09;99803.09;;;1.62;100.00
19884;BME280;10104;50.732;10.174;2024-01-27T08:50:51;99804.72;;;1.65;100.00
19884;BME280;10104;50.732;10.174;2024-01-27T08:53:31;99808.47;;;1.75;100.00
19884;BME280;10104;50.732;10.174;2024-01-27T08:56:12;99802.59;;;1.72;100.00
19884;BME280;10104;50.732;10.174;2024-01-27T08:58:53;99799.53;;;1.79;100.00
19884;BME280;10104;50.732;10.174;2024-01-27T09:01:34;99818.16;;;1.89;100.00
19884;BME280;10104;50.732;10.174;2024-01-27T09:04:14;99793.69;;;2.06;100.00
19884;BME280;10104;50.732;10.174;2024-01-27T09:06:55;99790.22;;;2.21;100.00
19884;BME280;10104;50.732;10.174;2024-01-27T09:09:35;99794.66;;;2.34;100.00
19884;BME280;10104;50.732;10.174;2024-01-27T09:12:18;99796.97;;;2.39;100.00
19884;BME280;10104;50.732;10.174;2024-01-27T09:14:58;99783.34;;;2.48;100.00
19884;BME280;10104;50.732;10.174;2024-01-27T09:17:38;99779.16;;;2.60;100.00
19884;BME280;10104;50.732;10.174;2024-01-27T09:20:20;99788.72;;;2.75;100.00
19884;BME280;10104;50.732;10.174;2024-01-27T09:23:00;99789.66;;;2.74;100.00
19884;BME280;10104;50.732;10.174;2024-01-27T09:25:41;99790.69;;;2.85;100.00
19884;BME280;10104;50.732;10.174;2024-01-27T09:28:21;99795.28;;;2.96;100.00
19884;BME280;10104;50.732;10.174;2024-01-27T09:31:01;99784.53;;;3.01;100.00
19884;BME280;10104;50.732;10.174;2024-01-27T09:33:42;99789.47;;;3.05;100.00
19884;BME280;10104;50.732;10.174;2024-01-27T09:36:23;99799.41;;;3.14;100.00
19884;BME280;10104;50.732;10.174;2024-01-27T09:39:03;99795.66;;;3.18;100.00
19884;BME280;10104;50.732;10.174;2024-01-27T09:41:44;99790.78;;;3.27;100.00
19884;BME280;10104;50.732;10.174;2024-01-27T09:44:25;99802.84;;;3.29;100.00
19884;BME280;10104;50.732;10.174;2024-01-27T09:47:06;99791.13;;;3.35;100.00
19884;BME280;10104;50.732;10.174;2024-01-27T09:49:47;99791.03;;;3.36;100.00
19884;BME280;10104;50.732;10.174;2024-01-27T09:52:29;99795.06;;;3.42;100.00
19884;BME280;10104;50.732;10.174;2024-01-27T09:55:09;99791.88;;;3.51;100.00
19884;BME280;10104;50.732;10.174;2024-01-27T09:57:50;99797.97;;;3.51;100.00
19884;BME280;10104;50.732;10.174;2024-01-27T10:00:33;99793.97;;;3.58;100.00
19884;BME280;10104;50.732;10.174;2024-01-27T10:03:16;99786.75;;;3.76;100.00
19884;BME280;10104;50.732;10.174;2024-01-27T10:05:57;99793.00;;;3.88;100.00
19884;BME280;10104;50.732;10.174;2024-01-27T10:08:38;99789.03;;;3.95;100.00
19884;BME280;10104;50.732;10.174;2024-01-27T10:11:20;99797.13;;;4.04;100.00
19884;BME280;10104;50.732;10.174;2024-01-27T10:14:00;99807.97;;;4.13;100.00
19884;BME280;10104;50.732;10.174;2024-01-27T10:16:44;99811.03;;;4.19;100.00
19884;BME280;10104;50.732;10.174;2024-01-27T10:19:25;99814.91;;;4.26;100.00
19884;BME280;10104;50.732;10.174;2024-01-27T10:22:06;99808.66;;;4.41;100.00
19884;BME280;10104;50.732;10.174;2024-01-27T10:24:46;99799.78;;;4.57;100.00
19884;BME280;10104;50.732;10.174;2024-01-27T10:27:27;99801.41;;;4.45;100.00
19884;BME280;10104;50.732;10.174;2024-01-27T10:30:15;99792.94;;;4.54;100.00
19884;BME280;10104;50.732;10.174;2024-01-27T10:32:56;99793.25;;;4.50;99.68
19884;BME280;10104;50.732;10.174;2024-01-27T10:35:37;99789.91;;;4.60;97.41
19884;BME280;10104;50.732;10.174;2024-01-27T10:38:18;99783.81;;;4.72;100.00
19884;BME280;10104;50.732;10.174;2024-01-27T10:40:58;99789.81;;;4.74;98.97
19884;BME280;10104;50.732;10.174;2024-01-27T10:43:39;99779.44;;;4.85;96.17
19884;BME280;10104;50.732;10.174;2024-01-27T10:46:20;99778.16;;;4.91;95.50
19884;BME280;10104;50.732;10.174;2024-01-27T10:49:03;99773.31;;;4.98;95.67
19884;BME280;10104;50.732;10.174;2024-01-27T10:51:56;99780.47;;;4.96;92.14
19884;BME280;10104;50.732;10.174;2024-01-27T10:54:38;99770.91;;;4.95;93.58
19884;BME280;10104;50.732;10.174;2024-01-27T10:57:21;99779.00;;;4.92;93.87
19884;BME280;10104;50.732;10.174;2024-01-27T11:00:05;99769.44;;;4.91;91.99
19884;BME280;10104;50.732;10.174;2024-01-27T11:02:50;99771.22;;;4.90;92.35
19884;BME280;10104;50.732;10.174;2024-01-27T11:05:35;99770.47;;;5.01;94.69
19884;BME280;10104;50.732;10.174;2024-01-27T11:08:16;99768.59;;;5.03;90.90
19884;BME280;10104;50.732;10.174;2024-01-27T11:10:58;99780.44;;;5.08;89.01
19884;BME280;10104;50.732;10.174;2024-01-27T11:13:39;99765.84;;;5.17;89.69
19884;BME280;10104;50.732;10.174;2024-01-27T11:16:19;99770.25;;;5.29;88.28
19884;BME280;10104;50.732;10.174;2024-01-27T11:19:00;99776.44;;;5.28;86.33
19884;BME280;10104;50.732;10.174;2024-01-27T11:21:40;99782.59;;;5.40;85.75
19884;BME280;10104;50.732;10.174;2024-01-27T11:24:23;99779.53;;;5.46;84.82
19884;BME280;10104;50.732;10.174;2024-01-27T11:27:05;99776.03;;;5.58;85.98
19884;BME280;10104;50.732;10.174;2024-01-27T11:29:47;99767.66;;;5.53;87.78
19884;BME280;10104;50.732;10.174;2024-01-27T11:32:28;99773.41;;;5.58;87.65
19884;BME280;10104;50.732;10.174;2024-01-27T11:35:09;99786.34;;;5.61;88.89
19884;BME280;10104;50.732;10.174;2024-01-27T11:37:50;99792.97;;;5.54;88.04
19884;BME280;10104;50.732;10.174;2024-01-27T11:40:30;99796.84;;;5.61;91.21
19884;BME280;10104;50.732;10.174;2024-01-27T11:43:11;99797.84;;;5.71;90.63
19884;BME280;10104;50.732;10.174;2024-01-27T11:45:57;99792.50;;;5.73;90.26
19884;BME280;10104;50.732;10.174;2024-01-27T11:48:41;99789.03;;;5.72;89.63
19884;BME280;10104;50.732;10.174;2024-01-27T11:51:24;99788.69;;;5.77;87.65
19884;BME280;10104;50.732;10.174;2024-01-27T11:54:05;99780.06;;;5.87;87.55
19884;BME280;10104;50.732;10.174;2024-01-27T11:56:45;99793.00;;;5.78;87.40
19884;BME280;10104;50.732;10.174;2024-01-27T11:59:26;99795.19;;;5.84;87.90
19884;BME280;10104;50.732;10.174;2024-01-27T12:02:07;99791.13;;;5.80;86.54
19884;BME280;10104;50.732;10.174;2024-01-27T12:04:48;99797.31;;;5.79;84.56
19884;BME280;10104;50.732;10.174;2024-01-27T12:07:28;99782.69;;;5.75;83.73
19884;BME280;10104;50.732;10.174;2024-01-27T12:10:09;99775.31;;;5.92;86.39
19884;BME280;10104;50.732;10.174;2024-01-27T12:12:49;99783.25;;;6.03;87.43
19884;BME280;10104;50.732;10.174;2024-01-27T12:15:30;99777.59;;;5.97;82.83
19884;BME280;10104;50.732;10.174;2024-01-27T12:18:10;99785.75;;;6.05;84.29
19884;BME280;10104;50.732;10.174;2024-01-27T12:20:55;99794.38;;;6.07;88.63
19884;BME280;10104;50.732;10.174;2024-01-27T12:23:36;99794.22;;;5.97;82.83
19884;BME280;10104;50.732;10.174;2024-01-27T12:26:16;99779.50;;;5.95;81.10
19884;BME280;10104;50.732;10.174;2024-01-27T12:28:57;99788.97;;;5.97;81.37
19884;BME280;10104;50.732;10.174;2024-01-27T12:31:38;99788.72;;;6.00;80.30
19884;BME280;10104;50.732;10.174;2024-01-27T12:34:19;99785.38;;;5.98;82.13
19884;BME280;10104;50.732;10.174;2024-01-27T12:37:02;99783.00;;;6.06;84.23
19884;BME280;10104;50.732;10.174;2024-01-27T12:39:43;99769.09;;;6.17;81.24
19884;BME280;10104;50.732;10.174;2024-01-27T12:42:24;99768.81;;;6.09;81.48
19884;BME280;10104;50.732;10.174;2024-01-27T12:45:04;99761.88;;;6.08;82.65
19884;BME280;10104;50.732;10.174;2024-01-27T12:47:45;99754.13;;;6.18;83.89
19884;BME280;10104;50.732;10.174;2024-01-27T12:50:25;99775.03;;;6.08;81.35
19884;BME280;10104;50.732;10.174;2024-01-27T12:53:06;99774.53;;;6.03;78.29
19884;BME280;10104;50.732;10.174;2024-01-27T12:55:46;99766.53;;;6.04;79.18
19884;BME280;10104;50.732;10.174;2024-01-27T12:58:26;99770.16;;;6.15;79.89
19884;BME280;10104;50.732;10.174;2024-01-27T13:01:07;99767.56;;;6.26;78.68
19884;BME280;10104;50.732;10.174;2024-01-27T13:03:48;99765.69;;;6.39;78.13
19884;BME280;10104;50.732;10.174;2024-01-27T13:06:30;99767.72;;;6.35;76.15
19884;BME280;10104;50.732;10.174;2024-01-27T13:09:11;99766.25;;;6.31;74.16
19884;BME280;10104;50.732;10.174;2024-01-27T13:11:51;99770.00;;;6.40;75.56
19884;BME280;10104;50.732;10.174;2024-01-27T13:14:32;99763.44;;;6.45;76.04
19884;BME280;10104;50.732;10.174;2024-01-27T13:17:12;99777.66;;;6.43;76.31
19884;BME280;10104;50.732;10.174;2024-01-27T13:19:54;99764.03;;;6.49;78.33
19884;BME280;10104;50.732;10.174;2024-01-27T13:22:34;99770.56;;;6.32;74.63
19884;BME280;10104;50.732;10.174;2024-01-27T13:25:15;99757.69;;;6.40;75.48
19884;BME280;10104;50.732;10.174;2024-01-27T13:27:55;99766.72;;;6.60;79.63
19884;BME280;10104;50.732;10.174;2024-01-27T13:30:35;99762.03;;;6.53;77.24
19884;BME280;10104;50.732;10.174;2024-01-27T13:33:16;99771.69;;;6.52;76.05
19884;BME280;10104;50.732;10.174;2024-01-27T13:35:56;99763.72;;;6.30;76.52
19884;BME280;10104;50.732;10.174;2024-01-27T13:38:37;99770.34;;;6.35;71.86
19884;BME280;10104;50.732;10.174;2024-01-27T13:41:18;99759.38;;;6.41;74.89
19884;BME280;10104;50.732;10.174;2024-01-27T13:43:58;99750.75;;;6.50;72.39
19884;BME280;10104;50.732;10.174;2024-01-27T13:46:38;99749.91;;;6.50;74.26
19884;BME280;10104;50.732;10.174;2024-01-27T13:49:19;99751.38;;;6.54;74.78
19884;BME280;10104;50.732;10.174;2024-01-27T13:52:00;99752.06;;;6.45;72.47
19884;BME280;10104;50.732;10.174;2024-01-27T13:54:45;99754.72;;;6.56;73.78
19884;BME280;10104;50.732;10.174;2024-01-27T13:57:25;99759.28;;;6.54;74.42
19884;BME280;10104;50.732;10.174;2024-01-27T14:00:06;99749.44;;;6.56;73.58
19884;BME280;10104;50.732;10.174;2024-01-27T14:02:47;99747.81;;;6.66;71.05